createdAt,value
2018-07-26T00:00:37.936Z,82.75
2018-07-26T00:03:07.210Z,83.02
2018-07-26T00:05:36.264Z,82.85
2018-07-26T00:08:05.456Z,82.43
2018-07-26T00:10:34.845Z,82.83
2018-07-26T00:13:03.935Z,82.72
2018-07-26T00:15:33.172Z,82.45
2018-07-26T00:18:02.323Z,82.98
2018-07-26T00:20:31.796Z,82.72
2018-07-26T00:23:00.927Z,82.79
2018-07-26T00:25:30.218Z,83.03
2018-07-26T00:27:59.277Z,83.18
2018-07-26T00:30:28.421Z,82.63
2018-07-26T00:32:57.535Z,82.77
2018-07-26T00:35:26.645Z,83.60
2018-07-26T00:37:55.898Z,83.72
2018-07-26T00:40:25.141Z,83.78
2018-07-26T00:42:54.249Z,83.88
2018-07-26T00:45:23.391Z,83.92
2018-07-26T00:47:52.577Z,83.85
2018-07-26T00:50:21.977Z,83.33
2018-07-26T00:52:51.051Z,83.69
2018-07-26T00:55:20.181Z,84.13
2018-07-26T00:57:49.385Z,82.91
2018-07-26T01:00:19.616Z,83.31
2018-07-26T01:02:48.694Z,82.68
2018-07-26T01:05:17.905Z,83.08
2018-07-26T01:07:47.022Z,83.88
2018-07-26T01:10:16.132Z,84.09
2018-07-26T01:12:45.389Z,83.74
2018-07-26T01:15:14.498Z,83.84
2018-07-26T01:17:43.720Z,83.45
2018-07-26T01:20:12.861Z,83.46
2018-07-26T01:22:42.122Z,83.63
2018-07-26T01:25:11.278Z,83.25
2018-07-26T01:27:40.376Z,83.56
2018-07-26T01:30:09.498Z,81.69
2018-07-26T01:32:38.646Z,83.22
2018-07-26T01:35:07.739Z,82.93
2018-07-26T01:37:36.958Z,83.24
2018-07-26T01:40:06.088Z,83.77
2018-07-26T01:42:45.295Z,83.45
2018-07-26T01:45:14.373Z,82.71
2018-07-26T01:47:43.607Z,82.47
2018-07-26T01:50:12.693Z,82.29
2018-07-26T01:52:41.893Z,81.48
2018-07-26T01:55:10.985Z,82.45
2018-07-26T01:57:40.194Z,82.72
2018-07-26T02:00:09.347Z,82.62
2018-07-26T02:02:38.469Z,81.29
2018-07-26T02:05:07.573Z,80.77
2018-07-26T02:07:36.797Z,80.10
2018-07-26T02:10:05.909Z,80.15
2018-07-26T02:12:35.005Z,81.32
2018-07-26T02:15:04.180Z,81.62
2018-07-26T02:17:33.308Z,82.69
2018-07-26T02:20:02.409Z,81.40
2018-07-26T02:22:31.517Z,80.38
2018-07-26T02:25:00.676Z,80.55
2018-07-26T02:27:29.792Z,79.94
2018-07-26T02:29:58.980Z,80.24
2018-07-26T02:32:28.081Z,79.39
2018-07-26T02:34:57.180Z,80.02
2018-07-26T02:37:26.287Z,79.45
2018-07-26T02:39:55.568Z,81.02
2018-07-26T02:42:24.669Z,81.68
2018-07-26T02:44:53.768Z,82.04
2018-07-26T02:47:22.936Z,82.26
2018-07-26T02:49:52.049Z,82.29
2018-07-26T02:52:21.167Z,81.65
2018-07-26T02:54:50.387Z,81.04
2018-07-26T02:57:19.518Z,81.01
2018-07-26T02:59:48.654Z,81.80
2018-07-26T03:02:17.870Z,81.72
2018-07-26T03:04:46.998Z,82.34
2018-07-26T03:07:16.178Z,81.90
2018-07-26T03:09:45.502Z,82.59
2018-07-26T03:12:14.678Z,82.47
2018-07-26T03:14:45.121Z,82.12
2018-07-26T03:17:15.615Z,82.76
2018-07-26T03:19:45.439Z,82.99
2018-07-26T03:22:14.765Z,83.29
2018-07-26T03:24:43.870Z,83.40
2018-07-26T03:27:13.051Z,83.63
2018-07-26T03:29:42.145Z,83.36
2018-07-26T03:32:11.397Z,83.69
2018-07-26T03:34:40.517Z,83.39
2018-07-26T03:37:09.709Z,83.47
2018-07-26T03:39:38.825Z,83.04
2018-07-26T03:42:08.028Z,83.49
2018-07-26T03:44:37.178Z,83.54
2018-07-26T03:47:06.553Z,83.76
2018-07-26T03:49:35.673Z,83.47
2018-07-26T03:52:04.889Z,83.92
2018-07-26T03:54:34.061Z,84.40
2018-07-26T03:57:03.250Z,84.33
2018-07-26T03:59:32.364Z,84.61
2018-07-26T04:02:01.456Z,84.35
2018-07-26T04:04:30.677Z,84.70
2018-07-26T04:06:59.860Z,84.42
2018-07-26T04:09:29.064Z,84.48
2018-07-26T04:11:58.398Z,84.94
2018-07-26T04:14:27.498Z,84.80
2018-07-26T04:16:56.651Z,84.62
2018-07-26T04:19:25.853Z,84.46
2018-07-26T04:21:55.489Z,84.35
2018-07-26T04:24:24.700Z,83.79
2018-07-26T04:26:54.013Z,84.70
2018-07-26T04:29:23.305Z,84.17
2018-07-26T04:31:52.427Z,83.04
2018-07-26T04:34:21.552Z,84.37
2018-07-26T04:36:50.666Z,83.60
2018-07-26T04:39:19.814Z,83.34
2018-07-26T04:41:48.949Z,82.13
2018-07-26T04:44:18.078Z,81.37
2018-07-26T04:46:47.204Z,81.62
2018-07-26T04:49:16.365Z,80.71
2018-07-26T04:51:45.585Z,81.25
2018-07-26T04:54:14.726Z,80.75
2018-07-26T04:56:43.935Z,81.50
2018-07-26T04:59:13.084Z,81.05
2018-07-26T05:01:42.640Z,81.32
2018-07-26T05:04:11.758Z,80.25
2018-07-26T05:06:40.933Z,80.63
2018-07-26T05:09:11.644Z,80.35
2018-07-26T05:11:40.897Z,80.28
2018-07-26T05:14:10.000Z,78.67
2018-07-26T05:16:39.180Z,78.67
2018-07-26T05:19:08.330Z,78.23
2018-07-26T05:21:37.821Z,78.92
2018-07-26T05:24:09.319Z,78.87
2018-07-26T05:26:40.017Z,78.83
2018-07-26T05:29:09.119Z,78.54
2018-07-26T05:31:38.242Z,79.29
2018-07-26T05:34:07.388Z,79.15
2018-07-26T05:36:36.618Z,78.77
2018-07-26T05:39:08.868Z,78.71
2018-07-26T05:41:38.077Z,78.39
2018-07-26T05:44:07.181Z,78.43
2018-07-26T05:46:36.377Z,78.39
2018-07-26T05:49:05.762Z,78.06
2018-07-26T05:51:34.940Z,78.18
2018-07-26T05:54:04.252Z,76.72
2018-07-26T05:56:33.478Z,75.98
2018-07-26T05:59:02.559Z,76.08
2018-07-26T06:01:31.656Z,75.81
2018-07-26T06:04:00.934Z,75.37
2018-07-26T06:06:30.270Z,75.44
2018-07-26T06:08:59.362Z,73.82
2018-07-26T06:11:28.557Z,73.32
2018-07-26T06:13:57.678Z,74.16
2018-07-26T06:16:26.789Z,74.02
2018-07-26T06:18:55.959Z,72.07
2018-07-26T06:21:25.077Z,70.58
2018-07-26T06:23:54.153Z,71.27
2018-07-26T06:26:23.483Z,70.40
2018-07-26T06:28:52.721Z,71.27
2018-07-26T06:31:21.781Z,70.91
2018-07-26T06:33:50.886Z,71.06
2018-07-26T06:36:20.040Z,70.70
2018-07-26T06:38:49.329Z,70.49
2018-07-26T06:41:18.414Z,70.16
2018-07-26T06:43:47.549Z,70.25
2018-07-26T06:46:16.855Z,70.67
2018-07-26T06:48:45.977Z,69.98
2018-07-26T06:51:15.257Z,70.10
2018-07-26T06:53:44.349Z,69.73
2018-07-26T06:56:13.457Z,69.94
2018-07-26T06:58:42.553Z,69.22
2018-07-26T07:01:11.698Z,69.37
2018-07-26T07:03:40.780Z,70.52
2018-07-26T07:06:09.868Z,69.56
2018-07-26T07:08:39.013Z,68.35
2018-07-26T07:11:08.180Z,67.80
2018-07-26T07:13:37.291Z,68.99
2018-07-26T07:16:06.392Z,68.36
2018-07-26T07:18:35.550Z,69.00
2018-07-26T07:21:04.675Z,68.92
2018-07-26T07:23:33.824Z,69.12
2018-07-26T07:26:02.985Z,67.54
2018-07-26T07:28:32.060Z,68.32
2018-07-26T07:31:01.201Z,69.39
2018-07-26T07:33:30.314Z,68.90
2018-07-26T07:35:59.501Z,69.02
2018-07-26T07:38:28.610Z,68.31
2018-07-26T07:40:57.846Z,68.04
2018-07-26T07:43:27.014Z,68.10
2018-07-26T07:45:56.124Z,67.54
2018-07-26T07:48:25.217Z,67.20
2018-07-26T07:50:54.553Z,66.44
2018-07-26T07:53:23.622Z,65.97
2018-07-26T07:55:52.761Z,65.51
2018-07-26T07:58:21.877Z,65.11
2018-07-26T08:00:51.061Z,65.67
2018-07-26T08:03:20.241Z,64.79
2018-07-26T08:05:49.398Z,65.84
2018-07-26T08:08:18.517Z,62.58
2018-07-26T08:10:47.613Z,61.02
2018-07-26T08:13:16.780Z,61.54
2018-07-26T08:15:45.914Z,62.03
2018-07-26T08:18:14.976Z,62.17
2018-07-26T08:20:44.096Z,62.57
2018-07-26T08:23:13.244Z,61.97
2018-07-26T08:25:42.376Z,61.33
2018-07-26T08:28:11.624Z,61.79
2018-07-26T08:30:40.776Z,62.30
2018-07-26T08:33:09.872Z,63.31
2018-07-26T08:35:39.027Z,62.25
2018-07-26T08:38:08.182Z,62.50
2018-07-26T08:40:37.714Z,62.42
2018-07-26T08:43:07.242Z,62.16
2018-07-26T08:45:36.336Z,61.51
2018-07-26T08:48:05.698Z,61.58
2018-07-26T08:50:34.818Z,61.83
2018-07-26T08:53:10.728Z,62.79
2018-07-26T08:55:39.833Z,62.92
2018-07-26T08:58:08.933Z,62.05
2018-07-26T09:00:38.093Z,62.98
2018-07-26T09:03:07.280Z,62.13
2018-07-26T09:05:36.357Z,62.25
2018-07-26T09:08:05.472Z,60.92
2018-07-26T09:10:34.597Z,61.93
2018-07-26T09:13:03.743Z,59.84
2018-07-26T09:15:32.868Z,60.10
2018-07-26T09:18:02.107Z,60.18
2018-07-26T09:20:31.666Z,58.76
2018-07-26T09:23:00.910Z,59.57
2018-07-26T09:25:30.067Z,57.73
2018-07-26T09:27:59.158Z,56.18
2018-07-26T09:30:28.562Z,56.59
2018-07-26T09:32:57.710Z,57.31
2018-07-26T09:35:26.847Z,55.67
2018-07-26T09:37:55.840Z,54.97
2018-07-26T09:40:25.064Z,55.08
2018-07-26T09:42:54.480Z,55.06
2018-07-26T09:45:23.649Z,54.98
2018-07-26T09:47:52.843Z,54.67
2018-07-26T09:50:21.928Z,53.19
2018-07-26T09:52:51.129Z,53.64
2018-07-26T09:55:20.296Z,52.69
2018-07-26T09:57:50.056Z,52.90
2018-07-26T10:00:24.441Z,51.16
2018-07-26T10:02:53.557Z,51.97
2018-07-26T10:05:22.677Z,51.16
2018-07-26T10:07:51.825Z,51.20
2018-07-26T10:10:20.971Z,50.80
2018-07-26T10:12:50.041Z,50.39
2018-07-26T10:15:19.239Z,50.17
2018-07-26T10:17:48.413Z,48.47
2018-07-26T10:20:17.684Z,48.27
2018-07-26T10:22:46.832Z,46.80
2018-07-26T10:25:15.944Z,48.78
2018-07-26T10:27:45.215Z,48.70
2018-07-26T10:30:14.625Z,48.79
2018-07-26T10:32:43.836Z,48.82
2018-07-26T10:35:13.008Z,47.72
2018-07-26T10:37:42.200Z,48.27
2018-07-26T10:40:11.301Z,46.81
2018-07-26T10:42:40.446Z,46.03
2018-07-26T10:45:09.715Z,46.06
2018-07-26T10:47:38.902Z,46.14
2018-07-26T10:50:09.466Z,46.17
2018-07-26T10:52:38.753Z,45.13
2018-07-26T10:55:08.695Z,45.40
2018-07-26T10:57:38.985Z,46.15
2018-07-26T11:00:09.346Z,46.50
2018-07-26T11:02:38.874Z,44.86
2018-07-26T11:05:09.369Z,43.66
2018-07-26T11:07:39.084Z,44.99
2018-07-26T11:10:09.980Z,44.31
2018-07-26T11:12:39.378Z,43.16
2018-07-26T11:15:19.588Z,42.05
2018-07-26T11:17:48.808Z,41.91
2018-07-26T11:20:18.233Z,40.26
2018-07-26T11:22:47.849Z,42.22
2018-07-26T11:25:16.992Z,40.90
2018-07-26T11:27:46.254Z,34.95
2018-07-26T11:30:15.399Z,38.36
2018-07-26T11:32:44.693Z,38.09
2018-07-26T11:35:14.006Z,33.64
2018-07-26T11:37:43.413Z,33.33
2018-07-26T11:40:12.537Z,33.61
2018-07-26T11:42:41.633Z,38.36
2018-07-26T11:45:11.249Z,34.67
2018-07-26T11:47:40.577Z,36.82
2018-07-26T11:50:10.673Z,38.17
2018-07-26T11:52:39.791Z,38.13
2018-07-26T11:55:08.925Z,38.40
2018-07-26T11:57:37.995Z,38.73
2018-07-26T12:00:08.377Z,38.27
2018-07-26T12:02:37.538Z,38.48
2018-07-26T12:05:06.897Z,36.04
2018-07-26T12:07:35.985Z,36.72
2018-07-26T12:10:06.313Z,36.43
2018-07-26T12:12:35.488Z,38.08
2018-07-26T12:15:04.685Z,35.47
2018-07-26T12:17:33.871Z,37.96
2018-07-26T12:20:03.046Z,34.60
2018-07-26T12:22:32.260Z,33.80
2018-07-26T12:25:01.481Z,35.10
2018-07-26T12:27:37.320Z,37.01
2018-07-26T12:30:07.587Z,38.04
2018-07-26T12:32:37.085Z,33.31
2018-07-26T12:35:06.301Z,33.73
2018-07-26T12:37:35.489Z,31.91
2018-07-26T12:40:05.105Z,32.75
2018-07-26T12:42:34.261Z,32.45
2018-07-26T12:45:03.417Z,33.27
2018-07-26T12:47:32.615Z,32.71
2018-07-26T12:50:01.745Z,33.39
2018-07-26T12:52:31.066Z,33.49
2018-07-26T12:55:00.258Z,33.64
2018-07-26T12:57:29.550Z,33.05
2018-07-26T12:59:58.723Z,31.18
2018-07-26T13:02:27.907Z,32.58
2018-07-26T13:04:56.971Z,30.66
2018-07-26T13:07:26.095Z,29.84
2018-07-26T13:09:55.145Z,29.95
2018-07-26T13:12:24.374Z,30.78
2018-07-26T13:14:53.738Z,29.65
2018-07-26T13:17:22.820Z,28.01
2018-07-26T13:19:52.052Z,30.25
2018-07-26T13:22:21.359Z,29.62
2018-07-26T13:24:51.082Z,29.86
2018-07-26T13:27:20.464Z,28.58
2018-07-26T13:29:49.602Z,28.46
2018-07-26T13:32:18.698Z,27.09
2018-07-26T13:34:48.244Z,28.70
2018-07-26T13:37:17.396Z,27.20
2018-07-26T13:39:46.596Z,29.22
2018-07-26T13:42:15.743Z,28.72
2018-07-26T13:44:44.982Z,28.40
2018-07-26T13:47:14.077Z,27.15
2018-07-26T13:49:43.252Z,25.98
2018-07-26T13:52:12.362Z,26.99
2018-07-26T13:54:41.546Z,25.63
2018-07-26T13:57:10.824Z,26.92
2018-07-26T13:59:40.094Z,25.31
2018-07-26T14:02:09.273Z,24.75
2018-07-26T14:04:38.377Z,25.93
2018-07-26T14:07:07.592Z,25.49
2018-07-26T14:09:37.701Z,26.09
2018-07-26T14:12:07.021Z,25.85
2018-07-26T14:14:36.100Z,25.36
2018-07-26T14:17:05.297Z,25.02
2018-07-26T14:19:34.508Z,24.78
2018-07-26T14:22:03.698Z,26.39
2018-07-26T14:24:32.929Z,25.37
2018-07-26T14:27:02.192Z,24.82
2018-07-26T14:29:31.461Z,24.30
2018-07-26T14:32:00.565Z,24.52
2018-07-26T14:34:29.809Z,25.41
2018-07-26T14:36:58.969Z,25.41
2018-07-26T14:39:28.169Z,26.33
2018-07-26T14:41:57.249Z,25.90
2018-07-26T14:44:26.570Z,26.13
2018-07-26T14:46:55.661Z,23.84
2018-07-26T14:49:25.068Z,25.81
2018-07-26T14:51:54.309Z,24.98
2018-07-26T14:54:23.481Z,23.97
2018-07-26T14:56:52.603Z,23.90
2018-07-26T14:59:21.836Z,23.58
2018-07-26T15:01:50.993Z,23.91
2018-07-26T15:04:20.237Z,24.62
2018-07-26T15:06:49.344Z,24.37
2018-07-26T15:09:18.495Z,23.86
2018-07-26T15:11:47.897Z,25.17
2018-07-26T15:14:17.345Z,23.00
2018-07-26T15:16:46.368Z,25.21
2018-07-26T15:19:15.554Z,24.88
2018-07-26T15:21:44.839Z,22.45
2018-07-26T15:24:16.968Z,24.61
2018-07-26T15:26:46.077Z,25.85
2018-07-26T15:29:15.142Z,23.33
2018-07-26T15:31:44.700Z,24.92
2018-07-26T15:34:14.128Z,24.93
2018-07-26T15:36:43.637Z,25.96
2018-07-26T15:39:12.916Z,25.29
2018-07-26T15:41:43.674Z,23.53
2018-07-26T15:44:13.958Z,23.49
2018-07-26T15:46:43.383Z,28.75
2018-07-26T15:49:12.606Z,23.54
2018-07-26T15:51:41.864Z,23.46
2018-07-26T15:54:11.065Z,24.95
2018-07-26T15:56:40.239Z,25.23
2018-07-26T15:59:09.567Z,24.79
2018-07-26T16:01:38.838Z,23.93
2018-07-26T16:04:07.981Z,25.21
2018-07-26T16:06:37.132Z,24.42
2018-07-26T16:09:09.231Z,25.21
2018-07-26T16:11:38.499Z,25.52
2018-07-26T16:14:08.283Z,26.02
2018-07-26T16:16:37.405Z,25.67
2018-07-26T16:19:06.699Z,25.48
2018-07-26T16:21:36.055Z,25.30
2018-07-26T16:24:05.552Z,26.69
2018-07-26T16:26:34.586Z,26.34
2018-07-26T16:29:03.923Z,25.62
2018-07-26T16:31:33.068Z,24.85
2018-07-26T16:34:02.265Z,25.98
2018-07-26T16:36:31.416Z,26.34
2018-07-26T16:39:00.717Z,25.05
2018-07-26T16:41:30.025Z,27.44
2018-07-26T16:43:59.118Z,25.77
2018-07-26T16:46:28.176Z,27.31
2018-07-26T16:48:57.292Z,26.93
2018-07-26T16:51:28.004Z,26.56
2018-07-26T16:53:57.749Z,27.57
2018-07-26T16:56:26.940Z,25.94
2018-07-26T16:58:56.270Z,26.98
2018-07-26T17:01:25.328Z,27.14
2018-07-26T17:03:54.445Z,27.39
2018-07-26T17:06:23.580Z,28.66
2018-07-26T17:08:52.696Z,28.75
2018-07-26T17:11:21.864Z,28.97
2018-07-26T17:13:51.106Z,28.53
2018-07-26T17:16:20.417Z,28.72
2018-07-26T17:18:49.596Z,28.28
2018-07-26T17:21:18.709Z,29.80
2018-07-26T17:23:48.004Z,29.01
2018-07-26T17:26:17.177Z,28.94
2018-07-26T17:28:46.256Z,28.52
2018-07-26T17:31:15.497Z,30.47
2018-07-26T17:33:44.625Z,31.41
2018-07-26T17:36:13.810Z,31.45
2018-07-26T17:38:43.197Z,32.20
2018-07-26T17:41:12.418Z,36.50
2018-07-26T17:43:41.513Z,36.70
2018-07-26T17:46:10.602Z,37.01
2018-07-26T17:48:39.721Z,36.78
2018-07-26T17:51:08.908Z,36.75
